sensor_id;sensor_type;location;lat;lon;timestamp;temperature;humidity
55207;DHT22;41079;52.856;6.534;2022-07-21T00:01:35;19.30;99.90
55207;DHT22;41079;52.856;6.534;2022-07-21T00:04:01;19.30;99.90
55207;DHT22;41079;52.856;6.534;2022-07-21T00:06:26;19.20;99.90
55207;DHT22;41079;52.856;6.534;2022-07-21T00:08:52;19.20;99.90
55207;DHT22;41079;52.856;6.534;2022-07-21T00:11:18;19.10;99.90
55207;DHT22;41079;52.856;6.534;2022-07-21T00:13:43;19.20;99.90
55207;DHT22;41079;52.856;6.534;2022-07-21T00:16:09;19.10;99.90
55207;DHT22;41079;52.856;6.534;2022-07-21T00:18:35;19.10;99.90
55207;DHT22;41079;52.856;6.534;2022-07-21T00:21:01;19.10;99.90
55207;DHT22;41079;52.856;6.534;2022-07-21T00:23:27;19.10;99.90
55207;DHT22;41079;52.856;6.534;2022-07-21T00:25:53;19.10;99.90
55207;DHT22;41079;52.856;6.534;2022-07-21T00:28:20;19.10;99.90
55207;DHT22;41079;52.856;6.534;2022-07-21T00:30:46;19.10;99.90
55207;DHT22;41079;52.856;6.534;2022-07-21T00:33:12;19.00;99.90
55207;DHT22;41079;52.856;6.534;2022-07-21T00:35:38;19.10;99.90
55207;DHT22;41079;52.856;6.534;2022-07-21T00:38:03;19.10;99.90
55207;DHT22;41079;52.856;6.534;2022-07-21T00:40:29;19.10;99.90
55207;DHT22;41079;52.856;6.534;2022-07-21T00:42:56;19.00;99.90
55207;DHT22;41079;52.856;6.534;2022-07-21T00:45:22;19.00;99.90
55207;DHT22;41079;52.856;6.534;2022-07-21T00:47:47;18.90;99.90
55207;DHT22;41079;52.856;6.534;2022-07-21T00:50:16;19.00;99.90
55207;DHT22;41079;52.856;6.534;2022-07-21T00:52:42;19.00;99.90
55207;DHT22;41079;52.856;6.534;2022-07-21T00:55:10;18.90;99.90
55207;DHT22;41079;52.856;6.534;2022-07-21T00:57:36;19.00;99.90
55207;DHT22;41079;52.856;6.534;2022-07-21T01:00:08;19.00;99.90
55207;DHT22;41079;52.856;6.534;2022-07-21T01:02:34;18.90;99.90
55207;DHT22;41079;52.856;6.534;2022-07-21T01:05:04;18.90;99.90
55207;DHT22;41079;52.856;6.534;2022-07-21T01:07:30;18.90;99.90
55207;DHT22;41079;52.856;6.534;2022-07-21T01:09:56;18.80;99.90
55207;DHT22;41079;52.856;6.534;2022-07-21T01:12:22;18.80;99.90
55207;DHT22;41079;52.856;6.534;2022-07-21T01:14:48;18.80;99.90
55207;DHT22;41079;52.856;6.534;2022-07-21T01:17:13;18.80;99.90
55207;DHT22;41079;52.856;6.534;2022-07-21T01:19:39;18.80;99.90
55207;DHT22;41079;52.856;6.534;2022-07-21T01:22:06;18.70;99.90
55207;DHT22;41079;52.856;6.534;2022-07-21T01:24:32;18.70;99.90
55207;DHT22;41079;52.856;6.534;2022-07-21T01:26:58;18.70;99.90
55207;DHT22;41079;52.856;6.534;2022-07-21T01:29:24;18.60;99.90
55207;DHT22;41079;52.856;6.534;2022-07-21T01:31:50;18.60;99.90
55207;DHT22;41079;52.856;6.534;2022-07-21T01:34:16;18.60;99.90
55207;DHT22;41079;52.856;6.534;2022-07-21T01:36:43;18.60;99.90
55207;DHT22;41079;52.856;6.534;2022-07-21T01:39:09;18.60;99.90
55207;DHT22;41079;52.856;6.534;2022-07-21T01:41:53;18.60;99.90
55207;DHT22;41079;52.856;6.534;2022-07-21T01:44:19;18.60;99.90
55207;DHT22;41079;52.856;6.534;2022-07-21T01:46:48;18.60;99.90
55207;DHT22;41079;52.856;6.534;2022-07-21T01:49:16;18.60;99.90
55207;DHT22;41079;52.856;6.534;2022-07-21T01:51:42;18.60;99.90
55207;DHT22;41079;52.856;6.534;2022-07-21T01:54:09;18.60;99.90
55207;DHT22;41079;52.856;6.534;2022-07-21T01:56:36;18.60;99.90
55207;DHT22;41079;52.856;6.534;2022-07-21T01:59:03;18.60;99.90
55207;DHT22;41079;52.856;6.534;2022-07-21T02:01:30;18.50;99.90
55207;DHT22;41079;52.856;6.534;2022-07-21T02:03:58;18.50;99.90
55207;DHT22;41079;52.856;6.534;2022-07-21T02:06:24;18.50;99.90
55207;DHT22;41079;52.856;6.534;2022-07-21T02:08:50;18.50;99.90
55207;DHT22;41079;52.856;6.534;2022-07-21T02:11:17;18.50;99.90
55207;DHT22;41079;52.856;6.534;2022-07-21T02:13:44;18.40;99.90
55207;DHT22;41079;52.856;6.534;2022-07-21T02:16:10;18.40;99.90
55207;DHT22;41079;52.856;6.534;2022-07-21T02:18:36;18.40;99.90
55207;DHT22;41079;52.856;6.534;2022-07-21T02:21:02;18.40;99.90
55207;DHT22;41079;52.856;6.534;2022-07-21T02:23:29;18.30;99.90
55207;DHT22;41079;52.856;6.534;2022-07-21T02:25:55;18.30;99.90
55207;DHT22;41079;52.856;6.534;2022-07-21T02:28:22;18.30;99.90
55207;DHT22;41079;52.856;6.534;2022-07-21T02:30:48;18.30;99.90
55207;DHT22;41079;52.856;6.534;2022-07-21T02:33:14;18.30;99.90
55207;DHT22;41079;52.856;6.534;2022-07-21T02:35:41;18.30;99.90
55207;DHT22;41079;52.856;6.534;2022-07-21T02:38:08;18.30;99.90
55207;DHT22;41079;52.856;6.534;2022-07-21T02:40:34;18.40;99.90
55207;DHT22;41079;52.856;6.534;2022-07-21T02:43:00;18.40;99.90
55207;DHT22;41079;52.856;6.534;2022-07-21T02:45:26;18.40;99.90
55207;DHT22;41079;52.856;6.534;2022-07-21T02:47:55;18.40;99.90
55207;DHT22;41079;52.856;6.534;2022-07-21T02:50:24;18.40;99.90
55207;DHT22;41079;52.856;6.534;2022-07-21T02:52:54;18.30;99.90
55207;DHT22;41079;52.856;6.534;2022-07-21T02:55:21;18.30;99.90
55207;DHT22;41079;52.856;6.534;2022-07-21T02:57:46;18.30;99.90
55207;DHT22;41079;52.856;6.534;2022-07-21T03:00:12;18.30;99.90
55207;DHT22;41079;52.856;6.534;2022-07-21T03:02:38;18.30;99.90
55207;DHT22;41079;52.856;6.534;2022-07-21T03:05:04;18.30;99.90
55207;DHT22;41079;52.856;6.534;2022-07-21T03:07:29;18.30;99.90
55207;DHT22;41079;52.856;6.534;2022-07-21T03:09:55;18.30;99.90
55207;DHT22;41079;52.856;6.534;2022-07-21T03:12:21;18.30;99.90
55207;DHT22;41079;52.856;6.534;2022-07-21T03:14:46;18.30;99.90
55207;DHT22;41079;52.856;6.534;2022-07-21T03:17:13;18.30;99.90
55207;DHT22;41079;52.856;6.534;2022-07-21T03:19:39;18.30;99.90
55207;DHT22;41079;52.856;6.534;2022-07-21T03:22:04;18.30;99.90
55207;DHT22;41079;52.856;6.534;2022-07-21T03:24:30;18.30;99.90
55207;DHT22;41079;52.856;6.534;2022-07-21T03:26:56;18.30;99.90
55207;DHT22;41079;52.856;6.534;2022-07-21T03:29:22;18.30;99.90
55207;DHT22;41079;52.856;6.534;2022-07-21T03:31:48;18.30;99.90
55207;DHT22;41079;52.856;6.534;2022-07-21T03:34:15;18.30;99.90
55207;DHT22;41079;52.856;6.534;2022-07-21T03:36:41;18.30;99.90
55207;DHT22;41079;52.856;6.534;2022-07-21T03:39:07;18.40;99.90
55207;DHT22;41079;52.856;6.534;2022-07-21T03:41:32;18.30;99.90
55207;DHT22;41079;52.856;6.534;2022-07-21T03:43:58;18.30;99.90
55207;DHT22;41079;52.856;6.534;2022-07-21T03:46:24;18.40;99.90
55207;DHT22;41079;52.856;6.534;2022-07-21T03:48:49;18.40;99.90
55207;DHT22;41079;52.856;6.534;2022-07-21T03:51:15;18.40;99.90
55207;DHT22;41079;52.856;6.534;2022-07-21T03:53:42;18.40;99.90
55207;DHT22;41079;52.856;6.534;2022-07-21T03:56:08;18.40;99.90
55207;DHT22;41079;52.856;6.534;2022-07-21T03:58:34;18.40;99.90
55207;DHT22;41079;52.856;6.534;2022-07-21T04:00:59;18.40;99.90
55207;DHT22;41079;52.856;6.534;2022-07-21T04:03:25;18.40;99.90
55207;DHT22;41079;52.856;6.534;2022-07-21T04:05:52;18.50;99.90
55207;DHT22;41079;52.856;6.534;2022-07-21T04:08:18;18.50;99.90
55207;DHT22;41079;52.856;6.534;2022-07-21T04:10:44;18.50;99.90
55207;DHT22;41079;52.856;6.534;2022-07-21T04:13:11;18.50;99.90
55207;DHT22;41079;52.856;6.534;2022-07-21T04:15:38;18.60;99.90
55207;DHT22;41079;52.856;6.534;2022-07-21T04:18:05;18.60;99.90
55207;DHT22;41079;52.856;6.534;2022-07-21T04:20:32;18.60;99.90
55207;DHT22;41079;52.856;6.534;2022-07-21T04:22:57;18.60;99.90
55207;DHT22;41079;52.856;6.534;2022-07-21T04:25:23;18.60;99.90
55207;DHT22;41079;52.856;6.534;2022-07-21T04:27:50;18.60;99.90
55207;DHT22;41079;52.856;6.534;2022-07-21T04:30:18;18.60;99.90
55207;DHT22;41079;52.856;6.534;2022-07-21T04:32:44;18.60;99.90
55207;DHT22;41079;52.856;6.534;2022-07-21T04:35:10;18.60;99.90
55207;DHT22;41079;52.856;6.534;2022-07-21T04:37:37;18.60;99.90
55207;DHT22;41079;52.856;6.534;2022-07-21T04:40:05;18.60;99.90
55207;DHT22;41079;52.856;6.534;2022-07-21T04:42:31;18.60;99.90
55207;DHT22;41079;52.856;6.534;2022-07-21T04:44:56;18.60;99.90
55207;DHT22;41079;52.856;6.534;2022-07-21T04:47:22;18.60;99.90
55207;DHT22;41079;52.856;6.534;2022-07-21T04:49:47;18.70;99.90
55207;DHT22;41079;52.856;6.534;2022-07-21T04:52:13;18.70;99.90
55207;DHT22;41079;52.856;6.534;2022-07-21T04:54:39;18.60;99.90
55207;DHT22;41079;52.856;6.534;2022-07-21T04:57:05;18.70;99.90
55207;DHT22;41079;52.856;6.534;2022-07-21T04:59:33;18.70;99.90
55207;DHT22;41079;52.856;6.534;2022-07-21T05:01:59;18.70;99.90
55207;DHT22;41079;52.856;6.534;2022-07-21T05:04:27;18.70;99.90
55207;DHT22;41079;52.856;6.534;2022-07-21T05:06:53;18.70;99.90
55207;DHT22;41079;52.856;6.534;2022-07-21T05:09:18;18.70;99.90
55207;DHT22;41079;52.856;6.534;2022-07-21T05:11:44;18.70;99.90
55207;DHT22;41079;52.856;6.534;2022-07-21T05:14:09;18.70;99.90
55207;DHT22;41079;52.856;6.534;2022-07-21T05:16:36;18.80;99.90
55207;DHT22;41079;52.856;6.534;2022-07-21T05:19:02;18.80;99.90
55207;DHT22;41079;52.856;6.534;2022-07-21T05:21:27;18.80;99.90
55207;DHT22;41079;52.856;6.534;2022-07-21T05:23:53;18.80;99.90
55207;DHT22;41079;52.856;6.534;2022-07-21T05:26:19;18.90;99.90
55207;DHT22;41079;52.856;6.534;2022-07-21T05:28:45;18.90;99.90
55207;DHT22;41079;52.856;6.534;2022-07-21T05:31:11;18.90;99.90
55207;DHT22;41079;52.856;6.534;2022-07-21T05:33:37;19.00;99.90
55207;DHT22;41079;52.856;6.534;2022-07-21T05:36:03;19.00;99.90
55207;DHT22;41079;52.856;6.534;2022-07-21T05:38:30;19.00;99.90
55207;DHT22;41079;52.856;6.534;2022-07-21T05:40:56;19.00;99.90
55207;DHT22;41079;52.856;6.534;2022-07-21T05:43:25;19.10;99.90
55207;DHT22;41079;52.856;6.534;2022-07-21T05:45:51;19.10;99.90
55207;DHT22;41079;52.856;6.534;2022-07-21T05:48:16;19.20;99.90
55207;DHT22;41079;52.856;6.534;2022-07-21T05:50:51;19.20;99.90
55207;DHT22;41079;52.856;6.534;2022-07-21T05:53:16;19.20;99.90
55207;DHT22;41079;52.856;6.534;2022-07-21T05:55:43;19.40;99.90
55207;DHT22;41079;52.856;6.534;2022-07-21T05:58:08;19.50;99.90
55207;DHT22;41079;52.856;6.534;2022-07-21T06:00:35;19.60;99.90
55207;DHT22;41079;52.856;6.534;2022-07-21T06:03:01;19.80;99.90
55207;DHT22;41079;52.856;6.534;2022-07-21T06:05:26;20.20;99.90
55207;DHT22;41079;52.856;6.534;2022-07-21T06:07:52;20.50;99.90
55207;DHT22;41079;52.856;6.534;2022-07-21T06:10:17;20.90;99.90
55207;DHT22;41079;52.856;6.534;2022-07-21T06:12:44;21.00;99.90
55207;DHT22;41079;52.856;6.534;2022-07-21T06:15:10;21.00;99.90
55207;DHT22;41079;52.856;6.534;2022-07-21T06:17:43;20.90;99.90
55207;DHT22;41079;52.856;6.534;2022-07-21T06:20:09;20.70;99.90
55207;DHT22;41079;52.856;6.534;2022-07-21T06:22:36;20.50;99.90
55207;DHT22;41079;52.856;6.534;2022-07-21T06:25:03;20.30;99.90
55207;DHT22;41079;52.856;6.534;2022-07-21T06:27:28;20.30;99.90
55207;DHT22;41079;52.856;6.534;2022-07-21T06:29:54;20.00;99.90
55207;DHT22;41079;52.856;6.534;2022-07-21T06:32:22;19.90;99.90
55207;DHT22;41079;52.856;6.534;2022-07-21T06:34:53;19.90;99.90
55207;DHT22;41079;52.856;6.534;2022-07-21T06:37:18;19.80;99.90
55207;DHT22;41079;52.856;6.534;2022-07-21T06:39:44;19.70;99.90
55207;DHT22;41079;52.856;6.534;2022-07-21T06:42:10;19.60;99.90
55207;DHT22;41079;52.856;6.534;2022-07-21T06:44:35;19.60;99.90
55207;DHT22;41079;52.856;6.534;2022-07-21T06:47:03;19.60;99.90
55207;DHT22;41079;52.856;6.534;2022-07-21T06:49:48;19.60;99.90
55207;DHT22;41079;52.856;6.534;2022-07-21T06:52:17;19.60;99.90
55207;DHT22;41079;52.856;6.534;2022-07-21T06:54:55;19.70;99.90
55207;DHT22;41079;52.856;6.534;2022-07-21T06:57:21;19.70;99.90
55207;DHT22;41079;52.856;6.534;2022-07-21T06:59:47;19.70;99.90
55207;DHT22;41079;52.856;6.534;2022-07-21T07:02:13;19.80;99.90
55207;DHT22;41079;52.856;6.534;2022-07-21T07:04:38;19.80;99.90
55207;DHT22;41079;52.856;6.534;2022-07-21T07:07:04;19.90;99.90
55207;DHT22;41079;52.856;6.534;2022-07-21T07:09:30;19.90;99.90
55207;DHT22;41079;52.856;6.534;2022-07-21T07:11:55;19.90;99.90
55207;DHT22;41079;52.856;6.534;2022-07-21T07:14:32;19.90;99.90
55207;DHT22;41079;52.856;6.534;2022-07-21T07:16:59;20.00;99.90
55207;DHT22;41079;52.856;6.534;2022-07-21T07:19:26;20.10;99.90
55207;DHT22;41079;52.856;6.534;2022-07-21T07:21:52;20.20;99.90
55207;DHT22;41079;52.856;6.534;2022-07-21T07:24:17;20.30;99.90
55207;DHT22;41079;52.856;6.534;2022-07-21T07:26:43;20.30;99.90
55207;DHT22;41079;52.856;6.534;2022-07-21T07:29:09;20.30;99.90
55207;DHT22;41079;52.856;6.534;2022-07-21T07:31:35;20.40;99.90
55207;DHT22;41079;52.856;6.534;2022-07-21T07:34:00;20.50;99.90
55207;DHT22;41079;52.856;6.534;2022-07-21T07:36:27;20.50;99.90
55207;DHT22;41079;52.856;6.534;2022-07-21T07:38:54;20.80;99.90
55207;DHT22;41079;52.856;6.534;2022-07-21T07:41:21;20.90;99.90
55207;DHT22;41079;52.856;6.534;2022-07-21T07:43:46;21.00;99.90
55207;DHT22;41079;52.856;6.534;2022-07-21T07:46:12;20.90;99.90
55207;DHT22;41079;52.856;6.534;2022-07-21T07:48:39;21.00;99.90
55207;DHT22;41079;52.856;6.534;2022-07-21T07:51:06;21.10;99.90
55207;DHT22;41079;52.856;6.534;2022-07-21T07:53:32;21.10;99.90
55207;DHT22;41079;52.856;6.534;2022-07-21T07:55:58;21.20;99.90
55207;DHT22;41079;52.856;6.534;2022-07-21T07:58:24;21.10;99.90
55207;DHT22;41079;52.856;6.534;2022-07-21T08:00:49;21.10;99.90
55207;DHT22;41079;52.856;6.534;2022-07-21T08:03:15;21.20;99.90
55207;DHT22;41079;52.856;6.534;2022-07-21T08:05:41;21.30;99.90
55207;DHT22;41079;52.856;6.534;2022-07-21T08:08:06;21.50;99.90
55207;DHT22;41079;52.856;6.534;2022-07-21T08:10:32;21.90;99.90
55207;DHT22;41079;52.856;6.534;2022-07-21T08:12:58;22.30;99.90
55207;DHT22;41079;52.856;6.534;2022-07-21T08:15:24;22.80;99.90
55207;DHT22;41079;52.856;6.534;2022-07-21T08:17:50;23.10;99.90
55207;DHT22;41079;52.856;6.534;2022-07-21T08:20:15;23.40;99.90
55207;DHT22;41079;52.856;6.534;2022-07-21T08:22:41;23.70;99.90
55207;DHT22;41079;52.856;6.534;2022-07-21T08:25:06;23.80;99.90
55207;DHT22;41079;52.856;6.534;2022-07-21T08:27:32;23.80;99.90
55207;DHT22;41079;52.856;6.534;2022-07-21T08:29:58;24.00;99.90
55207;DHT22;41079;52.856;6.534;2022-07-21T08:32:24;23.90;99.90
55207;DHT22;41079;52.856;6.534;2022-07-21T08:34:49;23.90;99.90
55207;DHT22;41079;52.856;6.534;2022-07-21T08:37:15;24.00;99.90
55207;DHT22;41079;52.856;6.534;2022-07-21T08:39:41;24.20;99.90
55207;DHT22;41079;52.856;6.534;2022-07-21T08:42:08;24.30;99.90
55207;DHT22;41079;52.856;6.534;2022-07-21T08:44:34;24.70;99.90
55207;DHT22;41079;52.856;6.534;2022-07-21T08:47:00;25.30;99.90
55207;DHT22;41079;52.856;6.534;2022-07-21T08:49:26;25.30;99.90
55207;DHT22;41079;52.856;6.534;2022-07-21T08:51:52;25.20;99.90
55207;DHT22;41079;52.856;6.534;2022-07-21T08:54:22;25.20;99.90
55207;DHT22;41079;52.856;6.534;2022-07-21T08:56:48;25.00;99.90
55207;DHT22;41079;52.856;6.534;2022-07-21T08:59:14;25.10;99.90
55207;DHT22;41079;52.856;6.534;2022-07-21T09:01:39;24.80;99.90
55207;DHT22;41079;52.856;6.534;2022-07-21T09:04:28;24.70;99.90
55207;DHT22;41079;52.856;6.534;2022-07-21T09:07:06;24.70;99.90
55207;DHT22;41079;52.856;6.534;2022-07-21T09:09:33;24.90;99.90
55207;DHT22;41079;52.856;6.534;2022-07-21T09:12:00;25.10;99.90
55207;DHT22;41079;52.856;6.534;2022-07-21T09:14:30;25.20;99.90
55207;DHT22;41079;52.856;6.534;2022-07-21T09:16:57;25.50;99.90
55207;DHT22;41079;52.856;6.534;2022-07-21T09:19:26;25.90;99.90
55207;DHT22;41079;52.856;6.534;2022-07-21T09:21:54;26.00;99.90
55207;DHT22;41079;52.856;6.534;2022-07-21T09:24:26;26.00;99.90
55207;DHT22;41079;52.856;6.534;2022-07-21T09:29:42;25.60;99.90
55207;DHT22;41079;52.856;6.534;2022-07-21T09:34:46;24.90;99.90
55207;DHT22;41079;52.856;6.534;2022-07-21T09:37:12;24.70;99.90
55207;DHT22;41079;52.856;6.534;2022-07-21T09:39:49;24.50;99.90
55207;DHT22;41079;52.856;6.534;2022-07-21T09:44:48;24.10;99.90
55207;DHT22;41079;52.856;6.534;2022-07-21T09:47:16;23.90;99.90
55207;DHT22;41079;52.856;6.534;2022-07-21T09:49:42;23.70;99.90
55207;DHT22;41079;52.856;6.534;2022-07-21T09:52:29;23.50;99.90
55207;DHT22;41079;52.856;6.534;2022-07-21T09:57:28;23.00;99.90
55207;DHT22;41079;52.856;6.534;2022-07-21T09:59:56;22.60;99.90
55207;DHT22;41079;52.856;6.534;2022-07-21T10:02:27;22.40;99.90
55207;DHT22;41079;52.856;6.534;2022-07-21T10:07:26;22.00;99.90
55207;DHT22;41079;52.856;6.534;2022-07-21T10:09:53;21.70;99.90
55207;DHT22;41079;52.856;6.534;2022-07-21T10:12:19;21.50;99.90
55207;DHT22;41079;52.856;6.534;2022-07-21T10:14:45;21.40;99.90
55207;DHT22;41079;52.856;6.534;2022-07-21T10:17:13;21.30;99.90
55207;DHT22;41079;52.856;6.534;2022-07-21T10:20:04;21.10;99.90
55207;DHT22;41079;52.856;6.534;2022-07-21T10:25:36;20.90;99.90
55207;DHT22;41079;52.856;6.534;2022-07-21T10:28:14;20.90;99.90
55207;DHT22;41079;52.856;6.534;2022-07-21T10:30:44;20.90;99.90
55207;DHT22;41079;52.856;6.534;2022-07-21T10:33:11;20.90;99.90
55207;DHT22;41079;52.856;6.534;2022-07-21T10:35:43;20.90;99.90
55207;DHT22;41079;52.856;6.534;2022-07-21T10:40:51;20.90;99.90
55207;DHT22;41079;52.856;6.534;2022-07-21T10:43:36;21.00;99.90
55207;DHT22;41079;52.856;6.534;2022-07-21T10:46:02;21.10;99.90
55207;DHT22;41079;52.856;6.534;2022-07-21T10:51:14;21.10;99.90
55207;DHT22;41079;52.856;6.534;2022-07-21T10:53:40;21.10;99.90
55207;DHT22;41079;52.856;6.534;2022-07-21T10:56:07;21.20;99.90
55207;DHT22;41079;52.856;6.534;2022-07-21T10:58:34;21.30;99.90
55207;DHT22;41079;52.856;6.534;2022-07-21T11:03:42;21.50;99.90
55207;DHT22;41079;52.856;6.534;2022-07-21T11:09:14;21.80;99.90
55207;DHT22;41079;52.856;6.534;2022-07-21T11:14:18;22.40;99.90
55207;DHT22;41079;52.856;6.534;2022-07-21T11:19:36;22.50;99.90
55207;DHT22;41079;52.856;6.534;2022-07-21T11:22:22;22.60;99.90
55207;DHT22;41079;52.856;6.534;2022-07-21T11:24:51;22.60;99.90
55207;DHT22;41079;52.856;6.534;2022-07-21T11:27:22;22.60;99.90
55207;DHT22;41079;52.856;6.534;2022-07-21T11:29:48;22.40;99.90
55207;DHT22;41079;52.856;6.534;2022-07-21T11:32:15;22.20;99.90
55207;DHT22;41079;52.856;6.534;2022-07-21T11:34:53;21.90;99.90
55207;DHT22;41079;52.856;6.534;2022-07-21T11:37:28;21.70;99.90
55207;DHT22;41079;52.856;6.534;2022-07-21T11:39:54;21.50;99.90
55207;DHT22;41079;52.856;6.534;2022-07-21T11:42:20;21.40;99.90
55207;DHT22;41079;52.856;6.534;2022-07-21T11:44:46;21.20;99.90
55207;DHT22;41079;52.856;6.534;2022-07-21T11:47:14;21.10;99.90
55207;DHT22;41079;52.856;6.534;2022-07-21T11:49:41;21.00;99.90
55207;DHT22;41079;52.856;6.534;2022-07-21T11:52:12;21.00;99.90
55207;DHT22;41079;52.856;6.534;2022-07-21T11:54:45;21.20;99.90
55207;DHT22;41079;52.856;6.534;2022-07-21T11:57:11;21.40;99.90
55207;DHT22;41079;52.856;6.534;2022-07-21T11:59:38;21.60;99.90
55207;DHT22;41079;52.856;6.534;2022-07-21T12:07:24;22.40;99.90
55207;DHT22;41079;52.856;6.534;2022-07-21T12:09:55;22.70;99.90
55207;DHT22;41079;52.856;6.534;2022-07-21T12:12:37;22.70;99.90
55207;DHT22;41079;52.856;6.534;2022-07-21T12:17:47;22.70;99.90
55207;DHT22;41079;52.856;6.534;2022-07-21T12:20:15;22.50;99.90
55207;DHT22;41079;52.856;6.534;2022-07-21T12:22:43;22.40;99.90
55207;DHT22;41079;52.856;6.534;2022-07-21T12:25:12;22.20;99.90
55207;DHT22;41079;52.856;6.534;2022-07-21T12:27:40;22.20;99.90
55207;DHT22;41079;52.856;6.534;2022-07-21T12:30:08;22.00;99.90
55207;DHT22;41079;52.856;6.534;2022-07-21T12:32:48;21.90;99.90
55207;DHT22;41079;52.856;6.534;2022-07-21T12:35:23;21.80;99.90
55207;DHT22;41079;52.856;6.534;2022-07-21T12:40:29;21.50;99.90
55207;DHT22;41079;52.856;6.534;2022-07-21T12:43:19;21.30;99.90
55207;DHT22;41079;52.856;6.534;2022-07-21T12:46:04;21.30;99.90
55207;DHT22;41079;52.856;6.534;2022-07-21T12:48:34;21.40;99.90
55207;DHT22;41079;52.856;6.534;2022-07-21T12:51:12;21.40;99.90
55207;DHT22;41079;52.856;6.534;2022-07-21T12:53:42;21.40;99.90
55207;DHT22;41079;52.856;6.534;2022-07-21T12:56:09;21.40;99.90
55207;DHT22;41079;52.856;6.534;2022-07-21T12:58:35;21.30;99.90
55207;DHT22;41079;52.856;6.534;2022-07-21T13:01:02;21.30;99.90
55207;DHT22;41079;52.856;6.534;2022-07-21T13:03:29;21.20;99.90
55207;DHT22;41079;52.856;6.534;2022-07-21T13:05:55;21.00;99.90
55207;DHT22;41079;52.856;6.534;2022-07-21T13:08:20;20.80;99.90
55207;DHT22;41079;52.856;6.534;2022-07-21T13:10:46;20.80;99.90
55207;DHT22;41079;52.856;6.534;2022-07-21T13:13:12;20.70;99.90
55207;DHT22;41079;52.856;6.534;2022-07-21T13:15:37;20.60;99.90
55207;DHT22;41079;52.856;6.534;2022-07-21T13:18:03;20.60;99.90
55207;DHT22;41079;52.856;6.534;2022-07-21T13:20:29;20.60;99.90
55207;DHT22;41079;52.856;6.534;2022-07-21T13:22:54;20.60;99.90
55207;DHT22;41079;52.856;6.534;2022-07-21T13:25:20;20.60;99.90
55207;DHT22;41079;52.856;6.534;2022-07-21T13:27:46;20.70;99.90
55207;DHT22;41079;52.856;6.534;2022-07-21T13:30:11;20.70;99.90
55207;DHT22;41079;52.856;6.534;2022-07-21T13:32:37;20.80;99.90
55207;DHT22;41079;52.856;6.534;2022-07-21T13:35:05;20.80;99.90
55207;DHT22;41079;52.856;6.534;2022-07-21T13:37:30;20.90;99.90
55207;DHT22;41079;52.856;6.534;2022-07-21T13:39:56;20.90;99.90
55207;DHT22;41079;52.856;6.534;2022-07-21T13:42:22;21.00;99.90
55207;DHT22;41079;52.856;6.534;2022-07-21T13:44:47;21.10;99.90
55207;DHT22;41079;52.856;6.534;2022-07-21T13:47:13;21.10;99.90
55207;DHT22;41079;52.856;6.534;2022-07-21T13:49:39;21.10;99.90
55207;DHT22;41079;52.856;6.534;2022-07-21T13:52:04;21.10;99.90
55207;DHT22;41079;52.856;6.534;2022-07-21T13:54:30;21.00;99.90
55207;DHT22;41079;52.856;6.534;2022-07-21T13:56:56;21.00;99.90
55207;DHT22;41079;52.856;6.534;2022-07-21T13:59:22;20.90;99.90
55207;DHT22;41079;52.856;6.534;2022-07-21T14:01:48;20.80;99.90
55207;DHT22;41079;52.856;6.534;2022-07-21T14:04:14;20.60;99.90
55207;DHT22;41079;52.856;6.534;2022-07-21T14:06:40;20.40;99.90
55207;DHT22;41079;52.856;6.534;2022-07-21T14:09:05;20.30;99.90
55207;DHT22;41079;52.856;6.534;2022-07-21T14:11:31;20.20;99.90
55207;DHT22;41079;52.856;6.534;2022-07-21T14:13:57;20.10;99.90
55207;DHT22;41079;52.856;6.534;2022-07-21T14:16:22;20.00;99.90
55207;DHT22;41079;52.856;6.534;2022-07-21T14:18:48;20.10;99.90
55207;DHT22;41079;52.856;6.534;2022-07-21T14:21:14;20.20;99.90
55207;DHT22;41079;52.856;6.534;2022-07-21T14:23:39;20.30;99.90
55207;DHT22;41079;52.856;6.534;2022-07-21T14:26:05;20.50;99.90
55207;DHT22;41079;52.856;6.534;2022-07-21T14:28:31;20.70;99.90
55207;DHT22;41079;52.856;6.534;2022-07-21T14:30:57;20.90;99.90
55207;DHT22;41079;52.856;6.534;2022-07-21T14:33:23;21.00;99.90
55207;DHT22;41079;52.856;6.534;2022-07-21T14:35:48;21.10;99.90
55207;DHT22;41079;52.856;6.534;2022-07-21T14:38:14;21.10;99.90
55207;DHT22;41079;52.856;6.534;2022-07-21T14:40:41;21.10;99.90
55207;DHT22;41079;52.856;6.534;2022-07-21T14:43:06;21.10;99.90
55207;DHT22;41079;52.856;6.534;2022-07-21T14:45:32;21.10;99.90
55207;DHT22;41079;52.856;6.534;2022-07-21T14:47:58;21.10;99.90
55207;DHT22;41079;52.856;6.534;2022-07-21T14:50:25;21.10;99.90
55207;DHT22;41079;52.856;6.534;2022-07-21T14:52:51;21.10;99.90
55207;DHT22;41079;52.856;6.534;2022-07-21T14:55:16;21.10;99.90
55207;DHT22;41079;52.856;6.534;2022-07-21T14:57:42;21.10;99.90
55207;DHT22;41079;52.856;6.534;2022-07-21T15:00:10;21.10;99.90
55207;DHT22;41079;52.856;6.534;2022-07-21T15:02:35;21.10;99.90
55207;DHT22;41079;52.856;6.534;2022-07-21T15:05:02;21.00;99.90
55207;DHT22;41079;52.856;6.534;2022-07-21T15:07:28;21.10;99.90
55207;DHT22;41079;52.856;6.534;2022-07-21T15:09:53;21.10;99.90
55207;DHT22;41079;52.856;6.534;2022-07-21T15:12:21;21.20;99.90
55207;DHT22;41079;52.856;6.534;2022-07-21T15:14:47;21.40;99.90
55207;DHT22;41079;52.856;6.534;2022-07-21T15:17:12;21.40;99.90
55207;DHT22;41079;52.856;6.534;2022-07-21T15:19:38;21.40;99.90
55207;DHT22;41079;52.856;6.534;2022-07-21T15:22:04;21.50;99.90
55207;DHT22;41079;52.856;6.534;2022-07-21T15:24:30;21.50;99.90
55207;DHT22;41079;52.856;6.534;2022-07-21T15:26:56;21.50;99.90
55207;DHT22;41079;52.856;6.534;2022-07-21T15:29:21;21.60;99.90
55207;DHT22;41079;52.856;6.534;2022-07-21T15:31:47;21.80;99.90
55207;DHT22;41079;52.856;6.534;2022-07-21T15:34:13;21.80;99.90
55207;DHT22;41079;52.856;6.534;2022-07-21T15:36:38;21.90;99.90
55207;DHT22;41079;52.856;6.534;2022-07-21T15:39:06;21.90;99.90
55207;DHT22;41079;52.856;6.534;2022-07-21T15:41:35;21.90;99.90
55207;DHT22;41079;52.856;6.534;2022-07-21T15:44:02;22.00;99.90
55207;DHT22;41079;52.856;6.534;2022-07-21T15:46:27;22.00;99.90
55207;DHT22;41079;52.856;6.534;2022-07-21T15:48:53;22.10;99.90
55207;DHT22;41079;52.856;6.534;2022-07-21T15:51:19;21.90;99.90
55207;DHT22;41079;52.856;6.534;2022-07-21T15:53:44;21.90;99.90
55207;DHT22;41079;52.856;6.534;2022-07-21T15:56:10;21.80;99.90
55207;DHT22;41079;52.856;6.534;2022-07-21T15:58:36;21.60;99.90
55207;DHT22;41079;52.856;6.534;2022-07-21T16:01:21;21.50;99.90
55207;DHT22;41079;52.856;6.534;2022-07-21T16:03:47;21.30;99.90
55207;DHT22;41079;52.856;6.534;2022-07-21T16:06:12;21.20;99.90
55207;DHT22;41079;52.856;6.534;2022-07-21T16:08:38;21.00;99.90
55207;DHT22;41079;52.856;6.534;2022-07-21T16:11:04;20.80;99.90
55207;DHT22;41079;52.856;6.534;2022-07-21T16:13:30;20.70;99.90